sensor_id;sensor_type;location;lat;lon;timestamp;pressure;altitude;pressure_sealevel;temperature;humidity
6393;BME280;3229;42.674;23.282;2022-08-19T00:01:23;94423.66;;;24.77;57.12
6393;BME280;3229;42.674;23.282;2022-08-19T00:03:50;94416.25;;;24.74;57.05
6393;BME280;3229;42.674;23.282;2022-08-19T00:06:17;94422.31;;;24.74;57.21
6393;BME280;3229;42.674;23.282;2022-08-19T00:08:44;94412.31;;;24.71;57.42
6393;BME280;3229;42.674;23.282;2022-08-19T00:11:11;94398.91;;;24.56;57.62
6393;BME280;3229;42.674;23.282;2022-08-19T00:13:38;94426.28;;;24.65;57.96
6393;BME280;3229;42.674;23.282;2022-08-19T00:16:07;94422.09;;;24.64;58.11
6393;BME280;3229;42.674;23.282;2022-08-19T00:18:34;94427.81;;;24.61;58.24
6393;BME280;3229;42.674;23.282;2022-08-19T00:21:01;94426.25;;;24.48;58.62
6393;BME280;3229;42.674;23.282;2022-08-19T00:23:32;94443.38;;;24.56;58.64
6393;BME280;3229;42.674;23.282;2022-08-19T00:26:00;94435.75;;;24.55;58.95
6393;BME280;3229;42.674;23.282;2022-08-19T00:28:27;94439.16;;;24.55;58.85
6393;BME280;3229;42.674;23.282;2022-08-19T00:30:54;94446.22;;;24.55;58.66
6393;BME280;3229;42.674;23.282;2022-08-19T00:33:22;94437.00;;;24.52;58.38
6393;BME280;3229;42.674;23.282;2022-08-19T00:35:49;94431.78;;;24.52;57.98
6393;BME280;3229;42.674;23.282;2022-08-19T00:38:16;94433.59;;;24.51;57.64
6393;BME280;3229;42.674;23.282;2022-08-19T00:40:43;94437.00;;;24.52;57.49
6393;BME280;3229;42.674;23.282;2022-08-19T00:43:12;94429.41;;;24.50;57.47
6393;BME280;3229;42.674;23.282;2022-08-19T00:45:40;94426.00;;;24.50;57.28
6393;BME280;3229;42.674;23.282;2022-08-19T00:48:09;94425.41;;;24.48;57.57
6393;BME280;3229;42.674;23.282;2022-08-19T00:50:39;94428.28;;;24.46;57.50
6393;BME280;3229;42.674;23.282;2022-08-19T00:53:09;94423.97;;;24.40;57.52
6393;BME280;3229;42.674;23.282;2022-08-19T00:55:37;94424.78;;;24.41;57.27
6393;BME280;3229;42.674;23.282;2022-08-19T00:58:08;94408.03;;;24.30;57.15
6393;BME280;3229;42.674;23.282;2022-08-19T01:00:36;94417.13;;;24.39;57.05
6393;BME280;3229;42.674;23.282;2022-08-19T01:03:04;94419.63;;;24.34;56.91
6393;BME280;3229;42.674;23.282;2022-08-19T01:05:32;94423.03;;;24.35;57.31
6393;BME280;3229;42.674;23.282;2022-08-19T01:08:02;94417.00;;;24.34;57.38
6393;BME280;3229;42.674;23.282;2022-08-19T01:10:33;94421.09;;;24.30;57.81
6393;BME280;3229;42.674;23.282;2022-08-19T01:13:02;94425.53;;;24.29;58.37
6393;BME280;3229;42.674;23.282;2022-08-19T01:15:32;94428.03;;;24.24;58.65
6393;BME280;3229;42.674;23.282;2022-08-19T01:18:04;94405.81;;;24.10;58.44
6393;BME280;3229;42.674;23.282;2022-08-19T01:20:32;94401.25;;;24.06;58.60
6393;BME280;3229;42.674;23.282;2022-08-19T01:23:02;94422.47;;;24.21;58.38
6393;BME280;3229;42.674;23.282;2022-08-19T01:25:32;94415.91;;;24.18;58.24
6393;BME280;3229;42.674;23.282;2022-08-19T01:28:00;94416.34;;;24.15;58.09
6393;BME280;3229;42.674;23.282;2022-08-19T01:30:29;94381.84;;;23.90;58.72
6393;BME280;3229;42.674;23.282;2022-08-19T01:32:57;94422.97;;;24.06;59.02
6393;BME280;3229;42.674;23.282;2022-08-19T01:35:28;94414.78;;;24.02;58.78
6393;BME280;3229;42.674;23.282;2022-08-19T01:37:58;94424.97;;;24.04;59.18
6393;BME280;3229;42.674;23.282;2022-08-19T01:40:29;94423.84;;;24.00;59.27
6393;BME280;3229;42.674;23.282;2022-08-19T01:42:56;94417.63;;;23.89;59.40
6393;BME280;3229;42.674;23.282;2022-08-19T01:45:25;94425.81;;;23.93;59.70
6393;BME280;3229;42.674;23.282;2022-08-19T01:47:53;94426.59;;;23.93;59.85
6393;BME280;3229;42.674;23.282;2022-08-19T01:50:21;94425.22;;;23.91;60.14
6393;BME280;3229;42.674;23.282;2022-08-19T01:52:48;94420.66;;;23.86;60.37
6393;BME280;3229;42.674;23.282;2022-08-19T01:55:17;94415.78;;;23.78;60.52
6393;BME280;3229;42.674;23.282;2022-08-19T01:57:49;94426.56;;;23.82;60.97
6393;BME280;3229;42.674;23.282;2022-08-19T02:00:19;94428.03;;;23.77;61.31
6393;BME280;3229;42.674;23.282;2022-08-19T02:02:46;94431.09;;;23.74;61.36
6393;BME280;3229;42.674;23.282;2022-08-19T02:05:13;94429.75;;;23.72;61.35
6393;BME280;3229;42.674;23.282;2022-08-19T02:07:44;94428.16;;;23.71;61.62
6393;BME280;3229;42.674;23.282;2022-08-19T02:10:13;94430.44;;;23.67;61.96
6393;BME280;3229;42.674;23.282;2022-08-19T02:12:40;94406.31;;;23.53;62.32
6393;BME280;3229;42.674;23.282;2022-08-19T02:15:10;94421.44;;;23.63;62.17
6393;BME280;3229;42.674;23.282;2022-08-19T02:17:37;94416.09;;;23.58;62.64
6393;BME280;3229;42.674;23.282;2022-08-19T02:20:05;94413.81;;;23.50;62.62
6393;BME280;3229;42.674;23.282;2022-08-19T02:22:32;94428.44;;;23.51;63.24
6393;BME280;3229;42.674;23.282;2022-08-19T02:25:01;94426.84;;;23.50;63.11
6393;BME280;3229;42.674;23.282;2022-08-19T02:27:30;94410.81;;;23.35;63.52
6393;BME280;3229;42.674;23.282;2022-08-19T02:29:58;94422.06;;;23.47;63.81
6393;BME280;3229;42.674;23.282;2022-08-19T02:32:27;94426.38;;;23.41;63.78
6393;BME280;3229;42.674;23.282;2022-08-19T02:34:55;94417.16;;;23.39;63.98
6393;BME280;3229;42.674;23.282;2022-08-19T02:37:22;94419.31;;;23.30;64.28
6393;BME280;3229;42.674;23.282;2022-08-19T02:40:07;94422.16;;;23.28;64.40
6393;BME280;3229;42.674;23.282;2022-08-19T02:42:34;94427.13;;;23.30;64.59
6393;BME280;3229;42.674;23.282;2022-08-19T02:45:02;94412.47;;;23.17;64.67
6393;BME280;3229;42.674;23.282;2022-08-19T02:47:32;94420.41;;;23.22;64.69
6393;BME280;3229;42.674;23.282;2022-08-19T02:50:00;94426.44;;;23.23;64.83
6393;BME280;3229;42.674;23.282;2022-08-19T02:52:27;94421.75;;;23.13;65.16
6393;BME280;3229;42.674;23.282;2022-08-19T02:54:54;94429.00;;;23.11;65.31
6393;BME280;3229;42.674;23.282;2022-08-19T02:57:23;94433.63;;;23.09;65.23
6393;BME280;3229;42.674;23.282;2022-08-19T02:59:49;94432.94;;;23.02;65.59
6393;BME280;3229;42.674;23.282;2022-08-19T03:02:16;94435.19;;;22.98;65.80
6393;BME280;3229;42.674;23.282;2022-08-19T03:04:45;94440.28;;;22.93;65.74
6393;BME280;3229;42.674;23.282;2022-08-19T03:07:13;94432.91;;;22.90;66.00
6393;BME280;3229;42.674;23.282;2022-08-19T03:09:40;94435.69;;;22.89;65.93
6393;BME280;3229;42.674;23.282;2022-08-19T03:12:08;94430.56;;;22.82;66.27
6393;BME280;3229;42.674;23.282;2022-08-19T03:14:35;94401.19;;;22.57;66.34
6393;BME280;3229;42.674;23.282;2022-08-19T03:17:07;94426.44;;;22.74;66.50
6393;BME280;3229;42.674;23.282;2022-08-19T03:19:34;94430.84;;;22.74;66.65
6393;BME280;3229;42.674;23.282;2022-08-19T03:22:03;94415.47;;;22.54;67.03
6393;BME280;3229;42.674;23.282;2022-08-19T03:24:30;94425.22;;;22.59;67.21
6393;BME280;3229;42.674;23.282;2022-08-19T03:26:57;94429.84;;;22.57;67.59
6393;BME280;3229;42.674;23.282;2022-08-19T03:29:25;94401.19;;;22.38;67.41
6393;BME280;3229;42.674;23.282;2022-08-19T03:31:52;94433.25;;;22.57;67.31
6393;BME280;3229;42.674;23.282;2022-08-19T03:34:23;94409.03;;;22.38;67.52
6393;BME280;3229;42.674;23.282;2022-08-19T03:36:51;94397.72;;;22.26;67.23
6393;BME280;3229;42.674;23.282;2022-08-19T03:39:21;94412.94;;;22.29;67.27
6393;BME280;3229;42.674;23.282;2022-08-19T03:41:49;94431.38;;;22.46;67.55
6393;BME280;3229;42.674;23.282;2022-08-19T03:44:18;94432.84;;;22.42;67.29
6393;BME280;3229;42.674;23.282;2022-08-19T03:46:47;94455.03;;;22.44;67.74
6393;BME280;3229;42.674;23.282;2022-08-19T03:49:15;94449.69;;;22.39;67.83
6393;BME280;3229;42.674;23.282;2022-08-19T03:51:42;94455.31;;;22.36;67.89
6393;BME280;3229;42.674;23.282;2022-08-19T03:54:12;94462.94;;;22.38;67.73
6393;BME280;3229;42.674;23.282;2022-08-19T03:56:42;94461.78;;;22.34;67.46
6393;BME280;3229;42.674;23.282;2022-08-19T03:59:11;94463.16;;;22.36;67.30
6393;BME280;3229;42.674;23.282;2022-08-19T04:01:39;94466.56;;;22.37;67.20
6393;BME280;3229;42.674;23.282;2022-08-19T04:04:06;94462.56;;;22.34;67.52
6393;BME280;3229;42.674;23.282;2022-08-19T04:06:35;94465.97;;;22.35;67.62
6393;BME280;3229;42.674;23.282;2022-08-19T04:09:05;94468.34;;;22.36;67.41
6393;BME280;3229;42.674;23.282;2022-08-19T04:11:35;94462.16;;;22.37;67.49
6393;BME280;3229;42.674;23.282;2022-08-19T04:14:09;94467.94;;;22.39;67.65
6393;BME280;3229;42.674;23.282;2022-08-19T04:16:36;94447.59;;;22.29;67.75
6393;BME280;3229;42.674;23.282;2022-08-19T04:19:05;94468.06;;;22.44;68.15
6393;BME280;3229;42.674;23.282;2022-08-19T04:21:32;94474.44;;;22.48;67.93
6393;BME280;3229;42.674;23.282;2022-08-19T04:24:00;94468.22;;;22.49;67.44
6393;BME280;3229;42.674;23.282;2022-08-19T04:26:30;94484.81;;;22.55;67.75
6393;BME280;3229;42.674;23.282;2022-08-19T04:28:59;94479.38;;;22.57;67.77
6393;BME280;3229;42.674;23.282;2022-08-19T04:31:32;94474.75;;;22.59;67.63
6393;BME280;3229;42.674;23.282;2022-08-19T04:34:03;94470.75;;;22.56;67.80
6393;BME280;3229;42.674;23.282;2022-08-19T04:36:33;94479.22;;;22.70;67.86
6393;BME280;3229;42.674;23.282;2022-08-19T04:39:04;94471.91;;;22.78;68.14
6393;BME280;3229;42.674;23.282;2022-08-19T04:41:31;94475.47;;;22.84;68.33
6393;BME280;3229;42.674;23.282;2022-08-19T04:44:30;94476.28;;;23.03;68.04
6393;BME280;3229;42.674;23.282;2022-08-19T04:46:59;94448.72;;;23.07;66.68
6393;BME280;3229;42.674;23.282;2022-08-19T04:49:26;94475.19;;;23.41;65.55
6393;BME280;3229;42.674;23.282;2022-08-19T04:51:54;94474.50;;;23.57;64.75
6393;BME280;3229;42.674;23.282;2022-08-19T04:54:23;94471.19;;;23.68;64.36
6393;BME280;3229;42.674;23.282;2022-08-19T04:56:51;94473.94;;;23.85;64.00
6393;BME280;3229;42.674;23.282;2022-08-19T04:59:20;94470.75;;;23.95;63.27
6393;BME280;3229;42.674;23.282;2022-08-19T05:01:47;94478.50;;;24.13;62.88
6393;BME280;3229;42.674;23.282;2022-08-19T05:04:18;94461.81;;;24.14;62.89
6393;BME280;3229;42.674;23.282;2022-08-19T05:06:46;94482.50;;;24.39;62.57
6393;BME280;3229;42.674;23.282;2022-08-19T05:09:14;94488.06;;;24.55;61.39
6393;BME280;3229;42.674;23.282;2022-08-19T05:11:43;94486.91;;;24.62;61.21
6393;BME280;3229;42.674;23.282;2022-08-19T05:14:11;94472.13;;;24.56;61.08
6393;BME280;3229;42.674;23.282;2022-08-19T05:16:39;94490.06;;;24.76;60.86
6393;BME280;3229;42.674;23.282;2022-08-19T05:19:07;94433.06;;;24.49;60.54
6393;BME280;3229;42.674;23.282;2022-08-19T05:21:53;94461.50;;;24.86;60.52
6393;BME280;3229;42.674;23.282;2022-08-19T05:24:38;94487.41;;;25.11;60.20
6393;BME280;3229;42.674;23.282;2022-08-19T05:27:04;94487.13;;;25.24;59.30
6393;BME280;3229;42.674;23.282;2022-08-19T05:29:33;94481.84;;;25.36;59.05
6393;BME280;3229;42.674;23.282;2022-08-19T05:32:01;94473.03;;;25.42;58.57
6393;BME280;3229;42.674;23.282;2022-08-19T05:34:30;94487.75;;;25.60;58.34
6393;BME280;3229;42.674;23.282;2022-08-19T05:37:01;94488.00;;;25.59;57.09
6393;BME280;3229;42.674;23.282;2022-08-19T05:39:32;94485.06;;;25.72;57.00
6393;BME280;3229;42.674;23.282;2022-08-19T05:42:02;94476.59;;;25.82;57.25
6393;BME280;3229;42.674;23.282;2022-08-19T05:44:33;94486.38;;;26.03;56.28
6393;BME280;3229;42.674;23.282;2022-08-19T05:47:03;94471.28;;;26.10;55.54
6393;BME280;3229;42.674;23.282;2022-08-19T05:49:34;94487.41;;;26.36;55.42
6393;BME280;3229;42.674;23.282;2022-08-19T05:52:05;94492.00;;;26.45;55.08
6393;BME280;3229;42.674;23.282;2022-08-19T05:54:33;94466.81;;;26.44;54.96
6393;BME280;3229;42.674;23.282;2022-08-19T05:57:01;94487.03;;;26.66;54.97
6393;BME280;3229;42.674;23.282;2022-08-19T05:59:28;94496.88;;;26.75;55.11
6393;BME280;3229;42.674;23.282;2022-08-19T06:01:55;94494.44;;;26.91;55.41
6393;BME280;3229;42.674;23.282;2022-08-19T06:04:23;94501.69;;;27.06;54.70
6393;BME280;3229;42.674;23.282;2022-08-19T06:06:52;94486.69;;;27.23;54.95
6393;BME280;3229;42.674;23.282;2022-08-19T06:09:21;94488.78;;;27.48;54.00
6393;BME280;3229;42.674;23.282;2022-08-19T06:11:50;94492.66;;;27.67;53.49
6393;BME280;3229;42.674;23.282;2022-08-19T06:14:20;94494.22;;;27.90;53.99
6393;BME280;3229;42.674;23.282;2022-08-19T06:16:48;94497.06;;;28.21;51.68
6393;BME280;3229;42.674;23.282;2022-08-19T06:19:18;94502.22;;;28.38;51.29
6393;BME280;3229;42.674;23.282;2022-08-19T06:21:47;94497.00;;;28.48;51.90
6393;BME280;3229;42.674;23.282;2022-08-19T06:24:17;94498.97;;;28.68;50.19
6393;BME280;3229;42.674;23.282;2022-08-19T06:26:47;94495.03;;;28.70;49.60
6393;BME280;3229;42.674;23.282;2022-08-19T06:29:17;94497.44;;;28.77;49.55
6393;BME280;3229;42.674;23.282;2022-08-19T06:31:46;94505.03;;;28.73;50.03
6393;BME280;3229;42.674;23.282;2022-08-19T06:34:15;94503.81;;;28.91;49.89
6393;BME280;3229;42.674;23.282;2022-08-19T06:36:46;94497.09;;;29.16;49.52
6393;BME280;3229;42.674;23.282;2022-08-19T06:39:15;94495.06;;;29.43;49.10
6393;BME280;3229;42.674;23.282;2022-08-19T06:41:47;94504.09;;;29.68;48.48
6393;BME280;3229;42.674;23.282;2022-08-19T06:44:14;94497.78;;;29.89;47.67
6393;BME280;3229;42.674;23.282;2022-08-19T06:46:42;94498.09;;;30.18;46.39
6393;BME280;3229;42.674;23.282;2022-08-19T06:49:09;94503.59;;;30.42;45.57
6393;BME280;3229;42.674;23.282;2022-08-19T06:51:39;94482.44;;;30.53;45.08
6393;BME280;3229;42.674;23.282;2022-08-19T06:54:07;94506.66;;;30.90;44.57
6393;BME280;3229;42.674;23.282;2022-08-19T06:56:34;94510.84;;;31.07;44.55
6393;BME280;3229;42.674;23.282;2022-08-19T06:59:03;94511.31;;;31.19;44.98
6393;BME280;3229;42.674;23.282;2022-08-19T07:01:34;94508.63;;;31.34;43.61
6393;BME280;3229;42.674;23.282;2022-08-19T07:04:04;94510.66;;;31.53;43.63
6393;BME280;3229;42.674;23.282;2022-08-19T07:06:31;94516.09;;;31.71;43.03
6393;BME280;3229;42.674;23.282;2022-08-19T07:08:58;94500.22;;;31.71;42.66
6393;BME280;3229;42.674;23.282;2022-08-19T07:11:25;94486.22;;;31.71;42.68
6393;BME280;3229;42.674;23.282;2022-08-19T07:13:52;94508.75;;;32.03;42.28
6393;BME280;3229;42.674;23.282;2022-08-19T07:16:21;94517.38;;;32.18;41.46
6393;BME280;3229;42.674;23.282;2022-08-19T07:18:49;94504.03;;;32.29;41.81
6393;BME280;3229;42.674;23.282;2022-08-19T07:21:18;94515.59;;;32.43;41.68
6393;BME280;3229;42.674;23.282;2022-08-19T07:23:47;94513.88;;;32.57;41.10
6393;BME280;3229;42.674;23.282;2022-08-19T07:26:19;94480.41;;;32.37;40.66
6393;BME280;3229;42.674;23.282;2022-08-19T07:28:47;94509.31;;;32.63;40.37
6393;BME280;3229;42.674;23.282;2022-08-19T07:31:16;94481.22;;;32.38;40.71
6393;BME280;3229;42.674;23.282;2022-08-19T07:33:46;94512.50;;;32.60;40.69
6393;BME280;3229;42.674;23.282;2022-08-19T07:36:16;94509.22;;;32.73;41.22
6393;BME280;3229;42.674;23.282;2022-08-19T07:38:45;94503.50;;;32.85;40.36
6393;BME280;3229;42.674;23.282;2022-08-19T07:41:15;94505.38;;;32.84;40.25
6393;BME280;3229;42.674;23.282;2022-08-19T07:43:42;94506.63;;;32.92;40.29
6393;BME280;3229;42.674;23.282;2022-08-19T07:46:10;94503.59;;;33.04;40.07
6393;BME280;3229;42.674;23.282;2022-08-19T07:48:39;94506.75;;;33.06;39.82
6393;BME280;3229;42.674;23.282;2022-08-19T07:51:09;94501.84;;;32.94;39.78
6393;BME280;3229;42.674;23.282;2022-08-19T07:53:37;94509.75;;;32.99;39.72
6393;BME280;3229;42.674;23.282;2022-08-19T07:56:04;94510.53;;;33.00;39.64
6393;BME280;3229;42.674;23.282;2022-08-19T07:58:33;94508.91;;;33.04;40.11
6393;BME280;3229;42.674;23.282;2022-08-19T08:01:01;94506.69;;;33.11;40.14
6393;BME280;3229;42.674;23.282;2022-08-19T08:03:28;94513.75;;;33.20;39.76
6393;BME280;3229;42.674;23.282;2022-08-19T08:06:11;94510.66;;;33.32;39.64
6393;BME280;3229;42.674;23.282;2022-08-19T08:08:56;94507.31;;;33.45;39.29
6393;BME280;3229;42.674;23.282;2022-08-19T08:11:43;94506.59;;;33.59;39.01
6393;BME280;3229;42.674;23.282;2022-08-19T08:14:16;94487.19;;;33.63;38.35
6393;BME280;3229;42.674;23.282;2022-08-19T08:16:43;94505.41;;;33.70;38.52
6393;BME280;3229;42.674;23.282;2022-08-19T08:19:11;94487.31;;;33.72;38.68
6393;BME280;3229;42.674;23.282;2022-08-19T08:21:41;94492.28;;;33.79;37.58
6393;BME280;3229;42.674;23.282;2022-08-19T08:24:09;94493.91;;;33.75;38.44
6393;BME280;3229;42.674;23.282;2022-08-19T08:26:37;94494.78;;;33.70;37.76
6393;BME280;3229;42.674;23.282;2022-08-19T08:29:03;94489.25;;;33.66;37.58
6393;BME280;3229;42.674;23.282;2022-08-19T08:31:31;94488.31;;;33.76;37.94
6393;BME280;3229;42.674;23.282;2022-08-19T08:33:59;94489.50;;;33.51;36.91
6393;BME280;3229;42.674;23.282;2022-08-19T08:36:26;94484.75;;;33.48;37.40
6393;BME280;3229;42.674;23.282;2022-08-19T08:38:54;94490.91;;;33.62;36.85
6393;BME280;3229;42.674;23.282;2022-08-19T08:41:27;94488.81;;;33.59;36.27
6393;BME280;3229;42.674;23.282;2022-08-19T08:43:55;94482.66;;;33.45;35.66
6393;BME280;3229;42.674;23.282;2022-08-19T08:46:27;94479.03;;;33.60;36.73
6393;BME280;3229;42.674;23.282;2022-08-19T08:49:01;94484.31;;;33.79;36.55
6393;BME280;3229;42.674;23.282;2022-08-19T08:51:34;94483.00;;;33.95;36.43
6393;BME280;3229;42.674;23.282;2022-08-19T08:54:06;94478.06;;;34.07;36.93
6393;BME280;3229;42.674;23.282;2022-08-19T08:56:33;94477.69;;;34.14;34.51
6393;BME280;3229;42.674;23.282;2022-08-19T08:59:04;94477.75;;;34.09;34.76
6393;BME280;3229;42.674;23.282;2022-08-19T09:01:34;94475.41;;;34.07;34.88
6393;BME280;3229;42.674;23.282;2022-08-19T09:04:02;94475.88;;;34.09;33.86
6393;BME280;3229;42.674;23.282;2022-08-19T09:06:36;94475.13;;;33.90;33.86
6393;BME280;3229;42.674;23.282;2022-08-19T09:09:14;94465.91;;;33.68;34.02
6393;BME280;3229;42.674;23.282;2022-08-19T09:11:54;94466.97;;;33.49;34.58
6393;BME280;3229;42.674;23.282;2022-08-19T09:14:34;94470.78;;;33.61;34.07
6393;BME280;3229;42.674;23.282;2022-08-19T09:17:03;94462.38;;;33.73;33.92
6393;BME280;3229;42.674;23.282;2022-08-19T09:19:34;94460.94;;;33.43;34.40
6393;BME280;3229;42.674;23.282;2022-08-19T09:22:01;94460.50;;;33.36;33.97
6393;BME280;3229;42.674;23.282;2022-08-19T09:24:29;94454.25;;;33.27;34.06
6393;BME280;3229;42.674;23.282;2022-08-19T09:26:56;94450.69;;;33.36;34.41
6393;BME280;3229;42.674;23.282;2022-08-19T09:29:23;94454.28;;;33.45;34.17
6393;BME280;3229;42.674;23.282;2022-08-19T09:31:50;94452.22;;;33.61;33.49
6393;BME280;3229;42.674;23.282;2022-08-19T09:34:16;94450.59;;;33.79;33.25
6393;BME280;3229;42.674;23.282;2022-08-19T09:36:45;94419.34;;;33.76;32.95
6393;BME280;3229;42.674;23.282;2022-08-19T09:39:12;94449.22;;;34.01;32.82
6393;BME280;3229;42.674;23.282;2022-08-19T09:41:40;94446.78;;;34.04;31.64
6393;BME280;3229;42.674;23.282;2022-08-19T09:44:07;94436.59;;;33.92;31.83
6393;BME280;3229;42.674;23.282;2022-08-19T09:46:34;94444.22;;;33.99;32.45
6393;BME280;3229;42.674;23.282;2022-08-19T09:49:01;94426.28;;;33.91;32.72
6393;BME280;3229;42.674;23.282;2022-08-19T09:51:29;94447.72;;;33.94;31.86
6393;BME280;3229;42.674;23.282;2022-08-19T09:54:00;94440.13;;;33.88;32.07
6393;BME280;3229;42.674;23.282;2022-08-19T09:56:28;94436.31;;;33.94;32.21
6393;BME280;3229;42.674;23.282;2022-08-19T09:58:57;94431.78;;;33.62;32.17
6393;BME280;3229;42.674;23.282;2022-08-19T10:01:26;94430.63;;;33.68;31.81
6393;BME280;3229;42.674;23.282;2022-08-19T10:03:55;94430.69;;;33.82;31.09
6393;BME280;3229;42.674;23.282;2022-08-19T10:06:24;94428.25;;;33.85;31.17
6393;BME280;3229;42.674;23.282;2022-08-19T10:08:52;94391.56;;;33.55;31.34
6393;BME280;3229;42.674;23.282;2022-08-19T10:11:20;94413.03;;;33.72;31.64
6393;BME280;3229;42.674;23.282;2022-08-19T10:13:47;94406.16;;;33.71;31.52
6393;BME280;3229;42.674;23.282;2022-08-19T10:16:17;94384.28;;;33.47;31.49
6393;BME280;3229;42.674;23.282;2022-08-19T10:18:45;94417.50;;;33.77;31.32
6393;BME280;3229;42.674;23.282;2022-08-19T10:21:15;94414.84;;;33.77;31.87
6393;BME280;3229;42.674;23.282;2022-08-19T10:23:44;94416.81;;;33.85;32.01
6393;BME280;3229;42.674;23.282;2022-08-19T10:26:13;94413.75;;;33.78;31.20
6393;BME280;3229;42.674;23.282;2022-08-19T10:28:40;94410.72;;;33.84;31.54
6393;BME280;3229;42.674;23.282;2022-08-19T10:31:08;94404.25;;;33.90;31.41
6393;BME280;3229;42.674;23.282;2022-08-19T10:33:38;94394.66;;;33.94;31.56
6393;BME280;3229;42.674;23.282;2022-08-19T10:36:08;94396.34;;;34.04;31.32
6393;BME280;3229;42.674;23.282;2022-08-19T10:38:36;94402.78;;;34.17;31.29
6393;BME280;3229;42.674;23.282;2022-08-19T10:41:08;94397.84;;;34.24;30.95
6393;BME280;3229;42.674;23.282;2022-08-19T10:43:35;94398.16;;;34.23;31.42
6393;BME280;3229;42.674;23.282;2022-08-19T10:46:04;94399.91;;;34.13;31.63
6393;BME280;3229;42.674;23.282;2022-08-19T10:48:31;94389.09;;;34.10;31.76
6393;BME280;3229;42.674;23.282;2022-08-19T10:51:00;94391.16;;;34.13;32.21
6393;BME280;3229;42.674;23.282;2022-08-19T10:53:44;94394.59;;;34.13;31.58
6393;BME280;3229;42.674;23.282;2022-08-19T10:56:11;94383.66;;;34.01;31.85
6393;BME280;3229;42.674;23.282;2022-08-19T10:58:56;94389.75;;;34.02;31.65
6393;BME280;3229;42.674;23.282;2022-08-19T11:01:24;94394.06;;;33.98;31.84
6393;BME280;3229;42.674;23.282;2022-08-19T11:03:51;94341.72;;;33.70;31.87
6393;BME280;3229;42.674;23.282;2022-08-19T11:06:19;94394.69;;;34.08;32.07
6393;BME280;3229;42.674;23.282;2022-08-19T11:08:46;94391.94;;;34.13;31.75
6393;BME280;3229;42.674;23.282;2022-08-19T11:11:13;94394.59;;;34.13;31.67
6393;BME280;3229;42.674;23.282;2022-08-19T11:13:41;94387.63;;;34.17;31.92
6393;BME280;3229;42.674;23.282;2022-08-19T11:16:11;94388.72;;;34.16;31.54
6393;BME280;3229;42.674;23.282;2022-08-19T11:18:45;94379.88;;;34.21;31.71
6393;BME280;3229;42.674;23.282;2022-08-19T11:21:16;94389.09;;;34.24;31.41
6393;BME280;3229;42.674;23.282;2022-08-19T11:23:46;94382.13;;;34.28;31.48
6393;BME280;3229;42.674;23.282;2022-08-19T11:26:15;94349.00;;;34.11;31.42
6393;BME280;3229;42.674;23.282;2022-08-19T11:28:42;94378.31;;;34.34;31.13
6393;BME280;3229;42.674;23.282;2022-08-19T11:31:14;94337.88;;;34.09;30.74
6393;BME280;3229;42.674;23.282;2022-08-19T11:33:42;94379.09;;;34.34;31.34
6393;BME280;3229;42.674;23.282;2022-08-19T11:36:09;94372.69;;;34.22;30.90
6393;BME280;3229;42.674;23.282;2022-08-19T11:38:37;94371.69;;;34.17;31.39
6393;BME280;3229;42.674;23.282;2022-08-19T11:41:06;94364.91;;;34.11;31.27
6393;BME280;3229;42.674;23.282;2022-08-19T11:43:34;94363.22;;;34.02;31.60
6393;BME280;3229;42.674;23.282;2022-08-19T11:46:04;94360.78;;;34.05;31.65
6393;BME280;3229;42.674;23.282;2022-08-19T11:48:33;94352.81;;;34.05;31.90
6393;BME280;3229;42.674;23.282;2022-08-19T11:51:03;94356.97;;;34.11;31.81
6393;BME280;3229;42.674;23.282;2022-08-19T11:53:32;94358.22;;;34.14;31.76
6393;BME280;3229;42.674;23.282;2022-08-19T11:56:00;94355.09;;;34.12;31.82
6393;BME280;3229;42.674;23.282;2022-08-19T11:58:28;94348.88;;;34.03;31.85
6393;BME280;3229;42.674;23.282;2022-08-19T12:00:55;94346.47;;;33.87;32.14
6393;BME280;3229;42.674;23.282;2022-08-19T12:03:23;94346.81;;;34.00;31.99
6393;BME280;3229;42.674;23.282;2022-08-19T12:05:50;94338.44;;;34.06;32.17
6393;BME280;3229;42.674;23.282;2022-08-19T12:08:18;94333.34;;;34.10;32.02
6393;BME280;3229;42.674;23.282;2022-08-19T12:10:45;94333.44;;;34.18;32.04
6393;BME280;3229;42.674;23.282;2022-08-19T12:13:13;94298.16;;;34.04;31.88
6393;BME280;3229;42.674;23.282;2022-08-19T12:15:46;94334.72;;;34.21;32.57
6393;BME280;3229;42.674;23.282;2022-08-19T12:18:13;94320.25;;;34.27;31.96
6393;BME280;3229;42.674;23.282;2022-08-19T12:20:41;94322.66;;;34.29;31.81
6393;BME280;3229;42.674;23.282;2022-08-19T12:23:09;94321.84;;;34.28;31.62
6393;BME280;3229;42.674;23.282;2022-08-19T12:25:42;94311.72;;;34.16;32.20
6393;BME280;3229;42.674;23.282;2022-08-19T12:28:17;94307.09;;;34.22;32.29
6393;BME280;3229;42.674;23.282;2022-08-19T12:30:45;94310.72;;;34.26;32.01
6393;BME280;3229;42.674;23.282;2022-08-19T12:33:12;94306.00;;;34.23;31.94
6393;BME280;3229;42.674;23.282;2022-08-19T12:35:40;94302.78;;;34.26;31.87
6393;BME280;3229;42.674;23.282;2022-08-19T12:38:07;94307.00;;;34.27;31.76
6393;BME280;3229;42.674;23.282;2022-08-19T12:40:34;94303.75;;;34.30;32.04
6393;BME280;3229;42.674;23.282;2022-08-19T12:43:01;94306.88;;;34.32;31.70
6393;BME280;3229;42.674;23.282;2022-08-19T12:45:28;94299.72;;;34.33;31.73
6393;BME280;3229;42.674;23.282;2022-08-19T12:47:56;94297.06;;;34.33;31.80
6393;BME280;3229;42.674;23.282;2022-08-19T12:50:23;94288.91;;;34.29;31.87
6393;BME280;3229;42.674;23.282;2022-08-19T12:52:50;94295.91;;;34.25;31.41
6393;BME280;3229;42.674;23.282;2022-08-19T12:55:18;94295.13;;;34.25;31.78
6393;BME280;3229;42.674;23.282;2022-08-19T12:57:45;94296.69;;;34.26;31.70
6393;BME280;3229;42.674;23.282;2022-08-19T13:00:16;94291.25;;;34.31;31.45
6393;BME280;3229;42.674;23.282;2022-08-19T13:02:45;94287.50;;;34.32;31.25
6393;BME280;3229;42.674;23.282;2022-08-19T13:05:19;94286.53;;;34.28;31.58
6393;BME280;3229;42.674;23.282;2022-08-19T13:07:48;94252.25;;;34.04;31.76
6393;BME280;3229;42.674;23.282;2022-08-19T13:10:17;94286.06;;;34.26;32.23
6393;BME280;3229;42.674;23.282;2022-08-19T13:12:46;94279.06;;;34.30;32.09
6393;BME280;3229;42.674;23.282;2022-08-19T13:15:15;94261.50;;;34.20;32.09
6393;BME280;3229;42.674;23.282;2022-08-19T13:17:46;94272.38;;;34.32;32.22
6393;BME280;3229;42.674;23.282;2022-08-19T13:20:16;94276.19;;;34.40;31.60